Time;durP1;ratioP1;P1;durP2;ratioP2;P2;SDS_P1;SDS_P2;PMS_P1;PMS_P2;Temp;Humidity;BMP_temperature;BMP_pressure;BME280_temperature;BME280_humidity;BME280_pressure;Samples;Min_cycle;Max_cycle;Signal;HPM_P1;HPM_P2
2023/08/03 00:00:16;;;;;;;3.75;1.80;;;21.40;99.90;;;;;;5012434;28;20441;-73
2023/08/03 00:02:42;;;;;;;4.03;1.88;;;21.40;99.90;;;;;;5005215;28;20030;-74
2023/08/03 00:05:08;;;;;;;9.00;2.42;;;21.50;99.90;;;;;;4992781;28;20022;-74
2023/08/03 00:07:34;;;;;;;3.03;2.10;;;21.40;99.90;;;;;;4992794;28;20545;-74
2023/08/03 00:10:00;;;;;;;2.58;1.73;;;21.40;99.90;;;;;;4995419;28;20451;-74
2023/08/03 00:12:26;;;;;;;3.35;2.35;;;21.40;99.90;;;;;;4996863;28;20034;-74
2023/08/03 00:14:52;;;;;;;5.72;2.50;;;21.40;99.90;;;;;;4996851;28;20034;-74
2023/08/03 00:17:18;;;;;;;12.40;3.10;;;21.40;99.90;;;;;;4996835;28;20132;-74
2023/08/03 00:19:43;;;;;;;3.83;2.03;;;21.40;99.90;;;;;;4996691;28;20449;-75
2023/08/03 00:22:09;;;;;;;2.85;2.47;;;21.30;99.90;;;;;;4996878;28;20168;-72
2023/08/03 00:24:36;;;;;;;4.05;2.15;;;21.40;99.90;;;;;;4996283;28;20061;-73
2023/08/03 00:27:02;;;;;;;3.10;2.20;;;21.40;99.90;;;;;;4996911;28;20038;-74
2023/08/03 00:29:27;;;;;;;3.80;2.15;;;21.40;99.90;;;;;;4996531;28;20030;-79
2023/08/03 00:31:53;;;;;;;2.78;2.40;;;21.40;99.90;;;;;;4996603;28;20041;-74
2023/08/03 00:34:19;;;;;;;3.00;1.90;;;21.40;99.90;;;;;;4996481;28;20387;-74
2023/08/03 00:36:44;;;;;;;5.43;2.55;;;21.30;99.90;;;;;;4996090;28;20034;-74
2023/08/03 00:39:10;;;;;;;6.30;2.10;;;21.30;99.90;;;;;;4996216;28;20157;-74
2023/08/03 00:41:36;;;;;;;4.35;2.20;;;21.30;99.90;;;;;;4996080;28;20032;-74
2023/08/03 00:44:01;;;;;;;2.92;2.05;;;21.20;99.90;;;;;;4996645;28;20026;-74
2023/08/03 00:46:27;;;;;;;3.40;2.38;;;21.20;99.90;;;;;;4996095;28;20102;-74
2023/08/03 00:48:52;;;;;;;3.33;1.77;;;21.20;99.90;;;;;;4995890;28;20026;-74
2023/08/03 00:51:18;;;;;;;4.47;2.45;;;21.20;99.90;;;;;;4996089;28;20023;-74
2023/08/03 00:53:45;;;;;;;3.10;2.15;;;21.10;99.90;;;;;;4995451;28;20038;-74
2023/08/03 00:56:11;;;;;;;4.05;1.88;;;21.10;99.90;;;;;;4996081;28;20426;-74
2023/08/03 00:58:39;;;;;;;5.30;2.47;;;21.10;99.90;;;;;;4995702;28;20081;-74
2023/08/03 01:01:05;;;;;;;4.18;2.40;;;21.10;99.90;;;;;;4996145;28;20026;-74
2023/08/03 01:03:31;;;;;;;5.00;2.28;;;21.10;99.90;;;;;;4995888;28;20034;-78
2023/08/03 01:05:57;;;;;;;3.92;2.38;;;21.10;99.90;;;;;;4995449;28;20065;-73
2023/08/03 01:08:24;;;;;;;2.58;2.03;;;21.10;99.90;;;;;;4997736;28;20099;-74
2023/08/03 01:10:51;;;;;;;5.53;2.30;;;21.10;99.90;;;;;;5014644;28;20490;-74
2023/08/03 01:13:17;;;;;;;2.42;2.13;;;21.10;99.90;;;;;;5015099;28;20064;-75
2023/08/03 01:15:43;;;;;;;2.50;2.20;;;21.10;99.90;;;;;;5015080;28;20088;-74
2023/08/03 01:18:09;;;;;;;3.60;2.00;;;21.10;99.90;;;;;;5015015;28;20030;-73
2023/08/03 01:20:37;;;;;;;3.75;2.60;;;21.10;99.90;;;;;;5014421;28;20467;-74
2023/08/03 01:23:04;;;;;;;4.95;2.70;;;21.10;99.90;;;;;;5015147;28;20105;-73
2023/08/03 01:25:32;;;;;;;3.40;2.55;;;21.10;99.90;;;;;;5014964;28;20398;-74
2023/08/03 01:27:57;;;;;;;3.88;1.90;;;21.10;99.90;;;;;;5011998;28;20030;-73
2023/08/03 01:30:23;;;;;;;4.00;2.58;;;21.10;99.90;;;;;;5015129;28;20524;-72
2023/08/03 01:32:49;;;;;;;6.45;2.13;;;21.10;99.90;;;;;;5014692;28;20454;-74
2023/08/03 01:35:15;;;;;;;2.60;2.40;;;21.10;99.90;;;;;;5014941;28;20045;-74
2023/08/03 01:37:41;;;;;;;5.45;2.38;;;21.10;99.90;;;;;;5014565;28;20402;-73
2023/08/03 01:40:08;;;;;;;3.90;2.53;;;21.10;99.90;;;;;;5015004;28;20025;-74
2023/08/03 01:42:33;;;;;;;3.67;2.58;;;21.10;99.90;;;;;;5014919;28;20038;-74
2023/08/03 01:44:59;;;;;;;3.90;2.65;;;21.10;99.90;;;;;;5014624;28;20399;-74
2023/08/03 01:47:25;;;;;;;7.88;2.70;;;21.10;99.90;;;;;;5014676;28;20156;-73
2023/08/03 01:49:50;;;;;;;2.83;2.10;;;21.10;99.90;;;;;;5014255;28;20026;-74
2023/08/03 01:52:16;;;;;;;2.92;2.50;;;21.10;99.90;;;;;;5014335;28;20033;-73
2023/08/03 01:54:41;;;;;;;6.25;2.33;;;21.10;99.90;;;;;;5006764;28;20039;-74
2023/08/03 01:57:07;;;;;;;3.90;2.42;;;21.10;99.90;;;;;;4994799;28;20026;-74
2023/08/03 01:59:32;;;;;;;4.00;2.35;;;21.10;99.90;;;;;;4994946;28;20026;-74
2023/08/03 02:01:58;;;;;;;4.45;2.20;;;21.10;99.90;;;;;;4994448;28;20027;-74
2023/08/03 02:04:24;;;;;;;4.00;2.00;;;21.10;99.90;;;;;;4994883;28;20030;-74
2023/08/03 02:06:53;;;;;;;4.45;2.10;;;21.10;99.90;;;;;;4994551;28;20101;-74
2023/08/03 02:09:19;;;;;;;3.53;2.20;;;21.10;99.90;;;;;;4994868;28;20470;-74
2023/08/03 02:11:46;;;;;;;3.03;2.28;;;21.00;99.90;;;;;;4994262;28;20065;-74
2023/08/03 02:14:11;;;;;;;3.67;2.08;;;20.90;99.90;;;;;;4994483;28;20034;-74
2023/08/03 02:16:37;;;;;;;3.28;2.25;;;20.90;99.90;;;;;;4994917;28;20092;-78
2023/08/03 02:19:03;;;;;;;4.28;2.10;;;20.80;99.90;;;;;;4994286;28;20026;-74
2023/08/03 02:21:28;;;;;;;4.18;2.30;;;20.80;99.90;;;;;;4994357;28;20474;-74
2023/08/03 02:23:54;;;;;;;3.05;2.10;;;20.80;99.90;;;;;;4993851;28;20045;-74
2023/08/03 02:26:20;;;;;;;2.45;1.83;;;20.70;99.90;;;;;;4994456;28;20026;-74
2023/08/03 02:28:45;;;;;;;5.78;2.40;;;20.70;99.90;;;;;;4993733;28;20038;-74
2023/08/03 02:31:11;;;;;;;3.95;2.22;;;20.70;99.90;;;;;;4993917;28;20403;-74
2023/08/03 02:33:36;;;;;;;2.58;1.80;;;20.60;99.90;;;;;;4994062;28;20087;-74
2023/08/03 02:36:02;;;;;;;2.60;2.03;;;20.60;99.90;;;;;;4993609;28;20176;-74
2023/08/03 02:38:28;;;;;;;4.40;2.22;;;20.60;99.90;;;;;;4994313;28;20030;-74
2023/08/03 02:40:54;;;;;;;2.78;2.15;;;20.60;99.90;;;;;;4994012;28;20034;-74
2023/08/03 02:43:19;;;;;;;4.72;2.22;;;20.60;99.90;;;;;;4993843;28;20037;-74
2023/08/03 02:45:45;;;;;;;2.80;2.22;;;20.60;99.90;;;;;;4994015;28;20026;-73
2023/08/03 02:48:11;;;;;;;2.78;2.25;;;20.60;99.90;;;;;;4994042;28;20030;-72
2023/08/03 02:50:36;;;;;;;3.47;2.35;;;20.50;99.90;;;;;;4993970;28;20101;-73
2023/08/03 02:53:02;;;;;;;3.53;2.00;;;20.50;99.90;;;;;;4993518;28;20026;-73
2023/08/03 02:55:27;;;;;;;4.38;2.38;;;20.40;99.90;;;;;;4993953;28;20513;-73
2023/08/03 02:57:53;;;;;;;4.28;2.30;;;20.40;99.90;;;;;;4994035;28;20031;-73
2023/08/03 03:00:20;;;;;;;3.53;2.13;;;20.30;99.90;;;;;;4991257;28;20141;-73
2023/08/03 03:02:45;;;;;;;3.75;2.15;;;20.30;99.90;;;;;;4973903;28;20031;-73
2023/08/03 03:05:11;;;;;;;3.45;1.80;;;20.30;99.90;;;;;;4984966;28;20383;-73
2023/08/03 03:07:37;;;;;;;3.17;1.90;;;20.30;99.90;;;;;;4991620;28;20074;-73
2023/08/03 03:10:02;;;;;;;3.42;2.10;;;20.30;99.90;;;;;;4993257;28;20030;-73
2023/08/03 03:12:28;;;;;;;3.67;2.45;;;20.30;99.90;;;;;;4993551;28;20030;-73
2023/08/03 03:14:54;;;;;;;2.28;1.80;;;20.30;99.90;;;;;;4993483;28;20072;-73
2023/08/03 03:17:19;;;;;;;4.05;1.77;;;20.30;99.90;;;;;;4993557;28;20084;-73
2023/08/03 03:19:45;;;;;;;2.75;1.83;;;20.30;99.90;;;;;;4995629;28;20026;-73
2023/08/03 03:22:11;;;;;;;3.03;2.10;;;20.30;99.90;;;;;;4993506;28;20030;-73
2023/08/03 03:24:36;;;;;;;3.67;1.70;;;20.30;99.90;;;;;;4993387;28;20053;-73
2023/08/03 03:27:02;;;;;;;2.58;1.83;;;20.40;99.90;;;;;;4992970;28;20026;-73
2023/08/03 03:29:28;;;;;;;2.30;1.63;;;20.40;99.90;;;;;;4993343;28;20026;-73
2023/08/03 03:31:53;;;;;;;1.90;1.73;;;20.40;99.90;;;;;;4993262;28;20348;-73
2023/08/03 03:34:19;;;;;;;2.17;1.75;;;20.40;99.90;;;;;;4993245;28;20546;-73
2023/08/03 03:36:44;;;;;;;3.15;1.90;;;20.50;99.90;;;;;;4992707;28;20031;-78
2023/08/03 03:39:10;;;;;;;2.13;1.77;;;20.50;99.90;;;;;;4993011;28;20464;-73
2023/08/03 03:41:36;;;;;;;2.38;2.00;;;20.50;99.90;;;;;;4993285;28;20113;-73
2023/08/03 03:44:01;;;;;;;2.78;1.98;;;20.50;99.90;;;;;;4975308;28;20088;-73
2023/08/03 03:46:27;;;;;;;2.83;2.10;;;20.60;99.90;;;;;;4992936;28;20031;-73
2023/08/03 03:48:52;;;;;;;4.60;1.90;;;20.60;99.90;;;;;;4992582;28;20022;-73
2023/08/03 03:51:20;;;;;;;3.78;1.92;;;20.60;99.90;;;;;;4993309;28;20030;-73
2023/08/03 03:53:45;;;;;;;4.75;2.30;;;20.60;99.90;;;;;;4975569;28;20121;-73
2023/08/03 03:56:11;;;;;;;4.95;2.30;;;20.60;99.90;;;;;;4993031;28;20542;-73
2023/08/03 03:58:37;;;;;;;2.45;2.00;;;20.70;99.90;;;;;;4993101;28;20042;-74
2023/08/03 04:01:02;;;;;;;4.30;2.20;;;20.60;99.90;;;;;;4992352;28;20054;-74
2023/08/03 04:03:28;;;;;;;2.90;2.00;;;20.70;99.90;;;;;;4993022;28;20038;-74
2023/08/03 04:05:54;;;;;;;2.80;2.38;;;20.70;99.90;;;;;;4991877;28;20195;-74
2023/08/03 04:08:19;;;;;;;3.25;2.45;;;20.70;99.90;;;;;;4992445;28;20105;-74
2023/08/03 04:10:45;;;;;;;4.03;2.33;;;20.70;99.90;;;;;;4993011;28;20037;-74
2023/08/03 04:13:11;;;;;;;3.28;2.42;;;20.80;99.90;;;;;;4991987;28;20109;-74
2023/08/03 04:15:36;;;;;;;2.70;2.13;;;20.80;99.90;;;;;;4992893;28;20077;-74
2023/08/03 04:18:02;;;;;;;3.60;2.08;;;20.80;99.90;;;;;;4974956;28;20112;-74
2023/08/03 04:20:28;;;;;;;2.80;1.90;;;20.90;99.90;;;;;;4993101;28;20127;-74
2023/08/03 04:22:53;;;;;;;3.85;2.53;;;20.90;99.90;;;;;;4992859;28;20026;-74
2023/08/03 04:25:19;;;;;;;4.47;2.33;;;20.90;99.90;;;;;;4992893;28;20037;-74
2023/08/03 04:27:45;;;;;;;3.50;2.00;;;20.90;99.90;;;;;;4992753;28;20081;-74
2023/08/03 04:30:11;;;;;;;3.95;2.33;;;21.00;99.90;;;;;;4992337;28;20034;-74
2023/08/03 04:32:37;;;;;;;4.05;2.13;;;21.00;99.90;;;;;;4992761;28;20038;-74
2023/08/03 04:35:03;;;;;;;3.92;2.40;;;21.00;99.90;;;;;;4992237;28;20030;-74
2023/08/03 04:37:29;;;;;;;8.38;3.50;;;21.00;99.90;;;;;;4992501;28;20026;-74
2023/08/03 04:39:55;;;;;;;3.15;1.95;;;21.00;99.90;;;;;;4992186;28;20030;-74
2023/08/03 04:42:21;;;;;;;2.58;1.83;;;21.00;99.90;;;;;;4992707;28;20032;-74
2023/08/03 04:44:47;;;;;;;5.05;1.80;;;21.00;99.90;;;;;;4992162;28;20109;-75
2023/08/03 04:47:13;;;;;;;4.75;2.10;;;21.00;99.90;;;;;;4991847;28;20486;-73
2023/08/03 04:49:39;;;;;;;5.78;1.83;;;21.00;99.90;;;;;;4992361;28;20073;-75
2023/08/03 04:52:05;;;;;;;4.10;1.70;;;21.00;99.90;;;;;;4991905;28;20026;-74
2023/08/03 04:54:31;;;;;;;5.38;1.65;;;21.00;98.20;;;;;;4992311;28;20053;-74
2023/08/03 04:56:56;;;;;;;2.97;1.73;;;21.00;97.80;;;;;;4995817;28;20026;-74
2023/08/03 04:59:22;;;;;;;3.78;1.80;;;21.00;96.70;;;;;;4996093;28;20053;-74
2023/08/03 05:01:47;;;;;;;2.38;1.30;;;21.00;95.80;;;;;;5004533;28;20108;-74
2023/08/03 05:04:14;;;;;;;4.47;1.40;;;21.00;94.70;;;;;;5014020;28;20474;-74
2023/08/03 05:06:40;;;;;;;3.63;1.67;;;21.00;94.20;;;;;;5015223;28;20038;-74
2023/08/03 05:09:05;;;;;;;5.90;1.80;;;21.00;93.70;;;;;;5015089;28;20030;-74
2023/08/03 05:11:31;;;;;;;3.20;1.15;;;21.00;93.40;;;;;;5015454;28;20048;-74
2023/08/03 05:13:57;;;;;;;5.68;1.60;;;21.00;93.10;;;;;;5014943;28;20026;-75
2023/08/03 05:16:24;;;;;;;3.75;1.48;;;21.00;92.60;;;;;;5015413;28;20038;-74
2023/08/03 05:18:51;;;;;;;2.38;1.70;;;21.00;92.50;;;;;;5015414;28;20018;-74
2023/08/03 05:21:17;;;;;;;4.75;1.52;;;21.00;92.30;;;;;;5014951;28;20466;-74
2023/08/03 05:23:43;;;;;;;3.10;1.30;;;21.10;92.00;;;;;;5015195;28;20045;-74
2023/08/03 05:26:09;;;;;;;2.33;1.25;;;21.10;91.70;;;;;;5011506;28;20117;-74
2023/08/03 05:28:34;;;;;;;3.25;1.27;;;21.10;91.20;;;;;;5015160;28;20030;-74
2023/08/03 05:31:00;;;;;;;2.72;1.52;;;21.10;91.20;;;;;;5015609;28;20383;-74
2023/08/03 05:33:27;;;;;;;3.75;1.60;;;21.20;91.20;;;;;;5015166;28;20072;-74
2023/08/03 05:35:52;;;;;;;4.15;1.65;;;21.20;91.00;;;;;;5014717;28;20060;-74
2023/08/03 05:38:18;;;;;;;3.80;1.33;;;21.20;90.90;;;;;;4996968;28;20025;-75
2023/08/03 05:40:43;;;;;;;4.07;1.80;;;21.30;91.00;;;;;;5014998;28;20462;-74
2023/08/03 05:43:10;;;;;;;3.92;1.35;;;21.30;90.80;;;;;;5014423;28;20037;-75
2023/08/03 05:45:43;;;;;;;5.25;1.42;;;21.30;90.80;;;;;;5014789;28;20037;-74
2023/08/03 05:48:20;;;;;;;7.13;1.83;;;21.30;90.90;;;;;;5014058;28;20030;-74
2023/08/03 05:50:51;;;;;;;2.83;1.35;;;21.40;91.00;;;;;;5015133;28;20026;-74
2023/08/03 05:53:18;;;;;;;3.35;1.55;;;21.40;91.20;;;;;;5014267;28;20033;-74
2023/08/03 05:55:44;;;;;;;3.58;1.30;;;21.50;90.90;;;;;;5014524;28;20040;-74
2023/08/03 05:58:12;;;;;;;2.78;1.40;;;21.50;90.80;;;;;;5002797;28;20031;-74
2023/08/03 06:00:40;;;;;;;3.47;1.50;;;21.60;90.40;;;;;;4994932;28;20018;-74
2023/08/03 06:03:15;;;;;;;3.63;1.17;;;21.70;89.80;;;;;;4994534;28;20038;-74
2023/08/03 06:05:50;;;;;;;3.55;1.35;;;21.80;90.10;;;;;;4994306;28;20073;-74
2023/08/03 06:08:15;;;;;;;3.38;1.10;;;21.90;88.30;;;;;;4993803;28;20078;-74
2023/08/03 06:10:46;;;;;;;2.88;1.60;;;22.10;87.80;;;;;;4994458;28;20034;-74
2023/08/03 06:13:14;;;;;;;3.60;1.33;;;22.10;87.50;;;;;;4994186;28;20034;-74
2023/08/03 06:15:42;;;;;;;3.95;1.30;;;22.10;87.40;;;;;;4994558;28;20509;-74
2023/08/03 06:18:11;;;;;;;5.82;1.60;;;22.10;85.80;;;;;;4994217;28;20030;-74
2023/08/03 06:20:43;;;;;;;4.20;1.42;;;22.10;85.70;;;;;;4994495;28;20562;-74
2023/08/03 06:23:25;;;;;;;5.95;1.95;;;22.10;86.00;;;;;;4994023;28;20422;-74
2023/08/03 06:25:53;;;;;;;2.97;1.30;;;22.00;86.20;;;;;;4994431;28;20027;-74
2023/08/03 06:28:21;;;;;;;4.50;2.00;;;22.00;85.50;;;;;;4993701;28;20394;-74
2023/08/03 06:30:48;;;;;;;5.32;1.90;;;22.00;86.00;;;;;;4994345;28;20060;-74
2023/08/03 06:33:21;;;;;;;4.00;1.52;;;22.00;85.60;;;;;;4993543;28;20030;-74
2023/08/03 06:35:47;;;;;;;10.07;2.03;;;21.90;85.20;;;;;;4994277;28;20084;-74
2023/08/03 06:38:16;;;;;;;5.95;1.83;;;21.90;85.00;;;;;;4993801;28;20057;-74
2023/08/03 06:40:42;;;;;;;3.35;1.50;;;21.90;84.70;;;;;;4994331;28;20088;-75
2023/08/03 06:43:09;;;;;;;5.00;1.67;;;21.90;85.60;;;;;;4993638;28;20038;-75
2023/08/03 06:45:35;;;;;;;3.60;1.50;;;21.90;84.60;;;;;;4976598;28;20113;-75
2023/08/03 06:48:02;;;;;;;5.38;2.08;;;21.90;84.30;;;;;;4976088;28;20026;-75
2023/08/03 06:50:29;;;;;;;3.42;1.33;;;21.90;84.00;;;;;;4976701;28;20061;-75
2023/08/03 06:52:56;;;;;;;4.78;1.80;;;21.90;83.90;;;;;;4993449;28;20475;-74
2023/08/03 06:55:21;;;;;;;3.17;1.95;;;21.90;83.40;;;;;;4993484;28;20116;-74
2023/08/03 06:57:47;;;;;;;5.00;1.63;;;21.90;83.30;;;;;;4993929;28;20050;-74
2023/08/03 07:00:14;;;;;;;4.50;1.50;;;21.80;83.40;;;;;;4993356;28;20030;-74
2023/08/03 07:02:39;;;;;;;4.43;1.52;;;21.90;83.30;;;;;;4995716;28;20487;-74
2023/08/03 07:05:05;;;;;;;3.17;1.63;;;21.80;83.40;;;;;;5012889;28;20119;-74
2023/08/03 07:07:31;;;;;;;6.22;1.40;;;21.80;83.20;;;;;;5013079;28;20062;-74
2023/08/03 07:09:59;;;;;;;4.57;1.30;;;21.80;83.60;;;;;;5013351;28;20030;-74
2023/08/03 07:12:26;;;;;;;3.28;1.50;;;21.80;83.80;;;;;;5012745;28;20037;-74
2023/08/03 07:14:51;;;;;;;6.90;1.60;;;21.80;83.50;;;;;;5013172;28;20026;-74
2023/08/03 07:17:17;;;;;;;3.03;1.40;;;21.80;83.20;;;;;;5012331;28;20109;-74
2023/08/03 07:19:43;;;;;;;2.95;1.23;;;21.80;83.20;;;;;;5001974;28;20037;-74
2023/08/03 07:22:11;;;;;;;3.92;1.35;;;21.70;83.30;;;;;;4975020;28;20058;-75
2023/08/03 07:24:37;;;;;;;5.85;1.35;;;21.70;83.70;;;;;;5008053;28;20030;-74
2023/08/03 07:27:02;;;;;;;3.72;1.65;;;21.70;83.60;;;;;;5011387;28;20108;-74
2023/08/03 07:29:34;;;;;;;4.13;1.50;;;21.70;83.10;;;;;;5013013;28;20037;-74
2023/08/03 07:32:00;;;;;;;6.05;1.65;;;21.80;82.70;;;;;;5012756;28;20466;-74
2023/08/03 07:34:26;;;;;;;4.55;1.63;;;21.70;81.70;;;;;;4994840;28;20037;-74
2023/08/03 07:36:53;;;;;;;5.55;1.55;;;21.80;82.10;;;;;;4996353;28;20044;-75
2023/08/03 07:39:19;;;;;;;4.63;1.58;;;21.80;82.50;;;;;;4993067;28;20097;-74
2023/08/03 07:41:45;;;;;;;4.95;1.00;;;21.80;82.70;;;;;;4993191;28;20034;-74
2023/08/03 07:44:11;;;;;;;4.97;1.73;;;21.80;83.20;;;;;;4992842;28;20041;-74
2023/08/03 07:46:36;;;;;;;5.82;1.60;;;21.80;84.60;;;;;;4993181;28;20030;-74
2023/08/03 07:49:02;;;;;;;5.80;1.67;;;21.80;85.50;;;;;;4993230;28;20038;-73
2023/08/03 07:51:27;;;;;;;3.13;1.42;;;21.80;85.20;;;;;;4992727;28;20084;-73
2023/08/03 07:53:54;;;;;;;4.72;1.55;;;21.70;85.40;;;;;;4990626;28;20475;-72
2023/08/03 07:56:21;;;;;;;2.25;1.40;;;21.80;85.80;;;;;;4992147;28;20041;-73
2023/08/03 07:58:48;;;;;;;3.63;1.60;;;21.70;86.00;;;;;;4992473;28;20110;-73
2023/08/03 08:01:14;;;;;;;4.65;1.80;;;21.80;86.50;;;;;;4992638;28;20030;-73
2023/08/03 08:03:40;;;;;;;4.13;2.03;;;21.80;86.70;;;;;;4992731;28;20110;-72
2023/08/03 08:06:24;;;;;;;5.05;1.60;;;21.80;86.70;;;;;;4975219;28;20062;-73
2023/08/03 08:08:51;;;;;;;4.53;1.73;;;21.80;86.10;;;;;;4993216;28;20029;-73
2023/08/03 08:11:18;;;;;;;4.97;1.95;;;21.80;85.30;;;;;;4992901;28;20130;-75
2023/08/03 08:13:44;;;;;;;3.30;1.27;;;21.80;84.60;;;;;;4975779;28;20040;-74
2023/08/03 08:16:13;;;;;;;3.42;1.70;;;21.80;82.90;;;;;;4993056;28;20077;-74
2023/08/03 08:18:39;;;;;;;3.80;1.40;;;21.80;81.40;;;;;;4975460;28;20113;-74
2023/08/03 08:21:07;;;;;;;4.13;1.80;;;21.90;81.60;;;;;;4992599;28;20109;-73
2023/08/03 08:23:33;;;;;;;4.93;1.80;;;21.90;81.80;;;;;;4992191;28;20022;-73
2023/08/03 08:25:59;;;;;;;4.57;1.80;;;21.90;80.80;;;;;;4992560;28;20030;-73
2023/08/03 08:28:25;;;;;;;4.97;1.38;;;21.90;80.20;;;;;;4992015;28;20035;-73
2023/08/03 08:30:51;;;;;;;6.35;1.50;;;21.90;78.30;;;;;;4994812;28;20105;-73
2023/08/03 08:33:18;;;;;;;7.88;1.92;;;21.90;76.00;;;;;;4995877;28;20113;-73
2023/08/03 08:35:45;;;;;;;4.65;1.30;;;21.90;75.50;;;;;;4978872;28;20081;-73
2023/08/03 08:38:15;;;;;;;3.95;1.35;;;21.90;75.30;;;;;;4978460;28;20483;-75
2023/08/03 08:40:42;;;;;;;5.18;1.33;;;21.90;75.20;;;;;;4996397;28;20473;-73
2023/08/03 08:43:08;;;;;;;5.25;1.50;;;21.90;74.20;;;;;;4996198;28;20490;-72
2023/08/03 08:45:34;;;;;;;2.30;1.30;;;21.90;73.90;;;;;;4996020;28;20044;-74
2023/08/03 08:48:00;;;;;;;3.08;1.40;;;21.90;73.80;;;;;;4996249;28;20034;-73
2023/08/03 08:50:26;;;;;;;3.20;1.40;;;21.90;74.50;;;;;;4995675;28;20114;-73
2023/08/03 08:52:52;;;;;;;2.88;1.30;;;21.90;74.90;;;;;;4995898;28;20567;-73
2023/08/03 08:55:24;;;;;;;3.17;1.55;;;21.90;75.00;;;;;;4995357;28;20444;-75
2023/08/03 08:57:50;;;;;;;3.45;1.30;;;21.90;74.80;;;;;;4995965;28;20026;-73
2023/08/03 09:00:17;;;;;;;4.07;1.90;;;21.80;74.40;;;;;;4996140;28;20030;-74
2023/08/03 09:02:43;;;;;;;3.17;1.40;;;21.90;75.20;;;;;;4995465;28;20113;-74
2023/08/03 09:05:17;;;;;;;6.10;1.60;;;21.90;75.50;;;;;;4995109;28;20069;-74
2023/08/03 09:07:43;;;;;;;3.17;1.23;;;21.90;75.90;;;;;;4994852;28;20137;-74
2023/08/03 09:10:09;;;;;;;3.33;1.20;;;21.90;75.70;;;;;;4995327;28;20424;-74
2023/08/03 09:12:37;;;;;;;4.30;1.30;;;21.80;75.90;;;;;;4994948;28;20030;-73
2023/08/03 09:15:03;;;;;;;3.35;1.30;;;21.80;76.50;;;;;;4995524;28;20034;-73
2023/08/03 09:17:29;;;;;;;3.30;1.67;;;21.80;75.90;;;;;;5001231;28;20057;-74
2023/08/03 09:19:55;;;;;;;4.20;1.58;;;21.70;75.70;;;;;;5015175;28;20032;-73
2023/08/03 09:22:25;;;;;;;8.45;1.70;;;21.80;75.80;;;;;;5014540;28;20018;-74
2023/08/03 09:25:08;;;;;;;2.90;1.40;;;21.80;75.80;;;;;;5015018;28;20030;-73
2023/08/03 09:27:37;;;;;;;3.20;1.25;;;21.70;75.00;;;;;;5014674;28;20271;-73
2023/08/03 09:30:04;;;;;;;3.33;1.48;;;21.70;75.20;;;;;;5015076;28;20382;-73
2023/08/03 09:32:34;;;;;;;2.40;1.30;;;21.70;74.10;;;;;;5014303;28;20053;-80
2023/08/03 09:35:01;;;;;;;3.63;1.33;;;21.70;75.40;;;;;;5015075;28;20034;-79
2023/08/03 09:37:34;;;;;;;2.38;1.27;;;21.70;75.40;;;;;;5009535;28;20467;-78
2023/08/03 09:40:03;;;;;;;3.03;1.27;;;21.80;76.20;;;;;;4992416;28;20022;-78
2023/08/03 09:42:31;;;;;;;2.95;1.40;;;21.80;75.90;;;;;;4994415;28;20109;-79
2023/08/03 09:45:00;;;;;;;2.28;1.35;;;21.80;75.80;;;;;;4995236;28;20022;-79
2023/08/03 09:47:26;;;;;;;2.38;1.38;;;21.80;75.70;;;;;;4994659;28;20077;-79
2023/08/03 09:49:52;;;;;;;4.35;1.40;;;21.80;76.40;;;;;;4994863;28;20026;-79
2023/08/03 09:52:22;;;;;;;2.15;1.17;;;21.90;76.00;;;;;;4994030;28;20026;-79
2023/08/03 09:54:57;;;;;;;4.63;1.83;;;21.90;75.90;;;;;;4994848;28;20081;-78
2023/08/03 09:57:28;;;;;;;7.57;1.90;;;21.90;75.80;;;;;;4994316;28;20096;-79
2023/08/03 09:59:58;;;;;;;;;;;21.90;76.20;;;;;;4995344;28;20041;-79
2023/08/03 10:02:29;;;;;;;6.68;1.60;;;21.90;75.20;;;;;;4978419;28;20402;-80
2023/08/03 10:05:00;;;;;;;7.93;1.77;;;21.90;75.70;;;;;;4996929;28;20025;-78
2023/08/03 10:07:32;;;;;;;3.45;1.42;;;22.00;75.90;;;;;;4996344;28;20129;-79
2023/08/03 10:10:01;;;;;;;4.25;1.90;;;21.90;75.20;;;;;;5000492;28;20026;-79
2023/08/03 10:12:43;;;;;;;2.60;1.38;;;22.00;76.00;;;;;;4996126;28;20376;-80
2023/08/03 10:15:12;;;;;;;6.90;1.60;;;22.00;77.20;;;;;;4995800;28;20053;-80
2023/08/03 10:17:38;;;;;;;4.15;1.70;;;22.00;78.10;;;;;;4996020;28;20041;-80
2023/08/03 10:20:06;;;;;;;3.40;1.65;;;22.00;77.80;;;;;;4993782;28;20435;-76
2023/08/03 10:22:31;;;;;;;5.10;2.10;;;22.00;77.20;;;;;;4993725;28;20109;-76
2023/08/03 10:25:17;;;;;;;5.30;1.38;;;22.00;76.20;;;;;;4994055;28;20097;-77
2023/08/03 10:28:14;;;;;;;6.88;1.45;;;22.10;76.10;;;;;;4992631;28;20053;-77
2023/08/03 10:31:10;;;;;;;5.35;1.50;;;22.10;76.60;;;;;;4992384;28;20030;-76
2023/08/03 10:33:51;;;;;;;3.75;1.38;;;22.10;77.40;;;;;;4993188;28;20041;-75
2023/08/03 10:36:25;;;;;;;4.47;1.40;;;22.00;77.90;;;;;;4993788;28;20053;-77
2023/08/03 10:38:51;;;;;;;4.45;1.90;;;22.00;78.50;;;;;;4994251;28;20027;-74
2023/08/03 10:41:21;;;;;;;4.30;1.60;;;22.00;78.70;;;;;;4976062;28;20025;-75
2023/08/03 10:44:05;;;;;;;6.70;1.60;;;22.00;79.30;;;;;;4996738;28;20036;-76
2023/08/03 10:46:42;;;;;;;2.53;1.27;;;21.90;78.90;;;;;;4996267;28;20028;-76
2023/08/03 10:49:22;;;;;;;3.75;1.63;;;21.90;79.60;;;;;;4999312;28;20029;-76
2023/08/03 10:52:24;;;;;;;3.08;1.40;;;21.90;79.50;;;;;;4999880;28;20110;-76
2023/08/03 10:54:51;;;;;;;3.35;1.50;;;21.90;79.80;;;;;;5000151;28;20451;-77
2023/08/03 10:57:25;;;;;;;6.00;2.75;;;21.90;80.10;;;;;;5004922;28;20475;-76
2023/08/03 10:59:56;;;;;;;6.90;2.80;;;21.80;80.20;;;;;;4999922;28;20034;-77
2023/08/03 11:02:25;;;;;;;5.43;1.65;;;21.80;79.70;;;;;;5002148;28;20049;-75
2023/08/03 11:05:03;;;;;;;4.07;1.73;;;21.80;79.40;;;;;;4986537;28;20056;-75
2023/08/03 11:07:32;;;;;;;6.75;1.60;;;21.80;78.90;;;;;;5000967;28;20046;-75
2023/08/03 11:10:00;;;;;;;3.88;1.58;;;21.80;78.70;;;;;;5003308;28;20041;-74
2023/08/03 11:12:27;;;;;;;5.65;1.77;;;21.80;78.60;;;;;;5002441;28;20362;-77
2023/08/03 11:14:54;;;;;;;4.78;1.50;;;21.70;78.50;;;;;;5004358;28;20038;-76
2023/08/03 11:17:25;;;;;;;2.72;1.50;;;21.70;78.50;;;;;;4999071;28;20117;-76
2023/08/03 11:19:52;;;;;;;3.85;1.50;;;21.70;78.50;;;;;;4998576;28;20034;-78
2023/08/03 11:22:21;;;;;;;3.92;1.42;;;21.70;78.40;;;;;;4992882;28;20043;-76
2023/08/03 11:24:48;;;;;;;2.65;1.20;;;21.70;78.60;;;;;;4992811;28;20018;-76
2023/08/03 11:27:14;;;;;;;5.70;1.70;;;21.60;78.20;;;;;;4992776;28;20034;-76
2023/08/03 11:29:39;;;;;;;2.97;1.35;;;21.60;78.50;;;;;;4992097;28;20053;-75
2023/08/03 11:32:06;;;;;;;4.25;1.67;;;21.60;78.40;;;;;;4975310;28;20034;-76
2023/08/03 11:34:32;;;;;;;5.65;1.92;;;21.60;78.70;;;;;;4992608;28;20203;-76
2023/08/03 11:36:58;;;;;;;5.20;1.60;;;21.60;78.80;;;;;;4993273;28;20038;-77
2023/08/03 11:39:24;;;;;;;6.68;1.67;;;21.60;79.00;;;;;;4992888;28;20371;-78
2023/08/03 11:41:52;;;;;;;7.07;2.13;;;21.60;79.00;;;;;;4993009;28;20034;-77
2023/08/03 11:44:22;;;;;;;5.20;1.85;;;21.60;79.00;;;;;;4993171;28;20387;-76
2023/08/03 11:46:49;;;;;;;3.97;1.40;;;21.60;79.70;;;;;;4992972;28;20489;-77
2023/08/03 11:49:15;;;;;;;4.85;1.50;;;21.50;80.20;;;;;;4992527;28;20030;-78
2023/08/03 11:51:41;;;;;;;5.40;1.75;;;21.50;80.40;;;;;;4992769;28;20046;-76
2023/08/03 11:54:09;;;;;;;3.78;1.40;;;21.50;80.30;;;;;;5003834;28;20022;-76
2023/08/03 11:56:37;;;;;;;3.05;1.48;;;21.50;80.50;;;;;;5000981;28;20047;-77
2023/08/03 11:59:09;;;;;;;4.18;1.40;;;21.50;81.00;;;;;;4999299;28;20022;-76
2023/08/03 12:01:49;;;;;;;3.95;1.40;;;21.50;81.00;;;;;;5000790;28;20026;-75
2023/08/03 12:04:16;;;;;;;5.30;1.40;;;21.40;81.60;;;;;;5003486;28;20030;-77
2023/08/03 12:06:47;;;;;;;5.97;1.17;;;21.50;81.70;;;;;;4997239;28;20054;-75
2023/08/03 12:09:26;;;;;;;4.15;1.45;;;21.40;81.30;;;;;;4993811;28;20026;-74
2023/08/03 12:12:03;;;;;;;4.05;1.48;;;21.40;81.40;;;;;;4996718;28;20470;-74
2023/08/03 12:14:29;;;;;;;2.85;1.60;;;21.40;81.70;;;;;;4996128;28;20125;-74
2023/08/03 12:16:55;;;;;;;3.50;1.45;;;21.40;82.10;;;;;;4981774;28;20455;-75
2023/08/03 12:19:21;;;;;;;3.33;1.40;;;21.40;82.00;;;;;;4977093;28;20066;-77
2023/08/03 12:21:47;;;;;;;3.15;1.52;;;21.50;82.50;;;;;;4996691;28;20041;-74
2023/08/03 12:24:13;;;;;;;5.53;1.70;;;21.50;82.60;;;;;;4990015;28;20069;-75
2023/08/03 12:26:42;;;;;;;5.50;1.52;;;21.50;82.90;;;;;;4993633;28;20393;-74
2023/08/03 12:29:08;;;;;;;3.88;1.13;;;21.50;83.30;;;;;;4992405;28;20034;-75
2023/08/03 12:31:34;;;;;;;6.50;1.70;;;21.50;83.40;;;;;;4995702;28;20031;-74
2023/08/03 12:34:00;;;;;;;7.32;1.30;;;21.50;83.20;;;;;;4996036;28;20042;-74
2023/08/03 12:36:26;;;;;;;3.53;1.30;;;21.40;83.40;;;;;;4996063;28;20114;-75
2023/08/03 12:38:53;;;;;;;5.40;1.20;;;21.40;83.40;;;;;;4996523;28;20030;-74
2023/08/03 12:41:19;;;;;;;3.40;1.30;;;21.40;82.30;;;;;;4996279;28;20030;-75
2023/08/03 12:43:46;;;;;;;3.17;1.30;;;21.30;81.40;;;;;;4995905;28;20454;-75
2023/08/03 12:46:12;;;;;;;3.00;1.27;;;21.30;81.90;;;;;;4996134;28;20382;-75
2023/08/03 12:48:37;;;;;;;3.90;1.50;;;21.30;82.20;;;;;;4984727;28;20023;-75